Pagrindinis puslapis
METAR-TAF:

METAR-TAF

Oro uostai :

Manisalesas, Kolumbija

platuma: 05-01-48N, ilguma: 075-27-50W, Aukštis: 2063 m

Dabartinis oras

Ataskaita buvo paskelbta 4 valandos ir 40 minutes, ne 19:00 UTC
Vėjas 5 kt iš Vakarų/Šiaurės Vakarų
Temperatūra 20°C
Drėgmė 78%
Slėgis 1027 hPa
Matomumas: 8000 m
Su prošvaistėmis ne aukštis 8000 ft
Rūkas kaimynystėje

METAR: SKMZ 051900Z 29005KT 8000 VCFG BKN080 20/16 A3033 RMK VCFG/W

Laikas: 18:40 (23:40 UTC)


TAF: trūkstamas

Orai ataskaitas ir orų prognozės (METAR, TAF).

turimą stotys yra geltonos ir raudonos taškus žemėlapyje.

Perkelti pele per norėdami pamatyti stoties vardą.

Tada spustelėkite, norėdami matyti oro stebėjimo ir prognozės.

Norėdami pakeisti žemėlapį: spustelėkite ant žalios mygtukų su juodo kryžiaus žemyn,; žalią mygtuką su brūkšneliu, jei norite nutolinti; arba žalių rodyklių gretimoms žemėlapius.


METAR-TAF: